Time;durP1;ratioP1;P1;durP2;ratioP2;P2;SDS_P1;SDS_P2;PMS_P1;PMS_P2;Temp;Humidity;BMP_temperature;BMP_pressure;BME280_temperature;BME280_humidity;BME280_pressure;Samples;Min_cycle;Max_cycle;Signal;HPM_P1;HPM_P2
2023/04/03 00:02:10;;;;;;;4.20;1.80;;;;;;;4.11;100.00;103134.03;5028611;28;20125;-64
2023/04/03 00:04:36;;;;;;;3.30;1.70;;;;;;;4.07;100.00;103141.69;5026819;28;20117;-63
2023/04/03 00:07:01;;;;;;;3.42;1.35;;;;;;;4.01;100.00;103135.44;5028227;28;20029;-63
2023/04/03 00:09:26;;;;;;;7.38;2.22;;;;;;;3.95;100.00;103143.09;5029240;28;20103;-64
2023/04/03 00:11:52;;;;;;;8.68;1.83;;;;;;;3.88;100.00;103143.72;5029909;28;20072;-63
2023/04/03 00:14:17;;;;;;;2.45;1.83;;;;;;;3.80;100.00;103140.91;5029453;28;20034;-64
2023/04/03 00:16:42;;;;;;;2.33;1.50;;;;;;;3.76;100.00;103141.63;5028130;28;20041;-62
2023/04/03 00:19:08;;;;;;;3.92;1.52;;;;;;;3.79;100.00;103140.00;5029957;28;20037;-63
2023/04/03 00:21:33;;;;;;;3.13;1.63;;;;;;;3.71;100.00;103144.09;5028818;28;20052;-64
2023/04/03 00:23:59;;;;;;;3.95;2.20;;;;;;;3.70;100.00;103150.13;5029157;28;20033;-64
2023/04/03 00:26:24;;;;;;;3.72;1.75;;;;;;;3.64;100.00;103150.81;5029077;28;20065;-63
2023/04/03 00:28:49;;;;;;;2.47;1.73;;;;;;;3.68;100.00;103146.63;5029689;28;20029;-63
2023/04/03 00:31:16;;;;;;;3.55;2.00;;;;;;;3.74;100.00;103153.75;5029463;28;20087;-63
2023/04/03 00:33:41;;;;;;;2.72;1.60;;;;;;;3.70;100.00;103149.28;5028991;28;20022;-64
2023/04/03 00:36:10;;;;;;;7.40;2.00;;;;;;;3.67;100.00;103155.25;5022538;28;20089;-63
2023/04/03 00:38:36;;;;;;;;;;;;;;;3.63;100.00;103146.47;4991386;28;20026;-63
2023/04/03 00:41:02;;;;;;;5.50;1.50;;;;;;;3.70;100.00;103154.47;4990619;28;19909;-63
2023/04/03 00:43:27;;;;;;;2.67;1.83;;;;;;;3.60;100.00;103150.66;5009030;28;20030;-62
2023/04/03 00:45:57;;;;;;;3.60;1.90;;;;;;;3.59;100.00;103157.63;5007818;28;20060;-62
2023/04/03 00:48:27;;;;;;;4.72;1.95;;;;;;;3.59;100.00;103160.25;5023579;28;20713;-64
2023/04/03 00:50:53;;;;;;;3.10;1.70;;;;;;;3.59;100.00;103161.94;5029150;28;20030;-62
2023/04/03 00:53:23;;;;;;;2.85;1.55;;;;;;;3.57;100.00;103163.59;5012536;28;20072;-62
2023/04/03 00:55:49;;;;;;;2.45;1.70;;;;;;;3.59;100.00;103156.72;5008707;28;20033;-63
2023/04/03 00:58:17;;;;;;;2.95;1.85;;;;;;;3.51;100.00;103159.06;4990765;28;20029;-64
2023/04/03 01:00:46;;;;;;;3.40;1.80;;;;;;;3.41;100.00;103158.75;5008712;28;20025;-65
2023/04/03 01:03:12;;;;;;;1.88;1.65;;;;;;;3.34;100.00;103163.75;4993844;28;20083;-65
2023/04/03 01:05:37;;;;;;;2.20;1.48;;;;;;;3.39;100.00;103164.78;5028206;28;20049;-62
2023/04/03 01:08:03;;;;;;;1.85;1.60;;;;;;;3.39;100.00;103162.16;5009190;28;20449;-62
2023/04/03 01:10:28;;;;;;;6.70;1.70;;;;;;;3.43;100.00;103164.03;5011348;28;20396;-65
2023/04/03 01:12:54;;;;;;;3.38;1.60;;;;;;;3.41;100.00;103165.72;5028722;28;20033;-62
2023/04/03 01:15:26;;;;;;;3.00;1.52;;;;;;;3.42;100.00;103162.25;5026015;28;20033;-62
2023/04/03 01:17:59;;;;;;;5.97;1.83;;;;;;;3.38;100.00;103168.22;5028895;28;20031;-64
2023/04/03 01:20:35;;;;;;;2.67;1.60;;;;;;;3.31;100.00;103166.25;5027924;28;20017;-62
2023/04/03 01:23:09;;;;;;;4.10;1.83;;;;;;;3.34;100.00;103168.94;5007711;28;20038;-62
2023/04/03 01:25:48;;;;;;;2.63;1.60;;;;;;;3.34;100.00;103168.94;5008114;28;20042;-63
2023/04/03 01:28:28;;;;;;;3.17;1.73;;;;;;;3.34;100.00;103166.34;5007644;28;20085;-64
2023/04/03 01:31:08;;;;;;;3.10;1.70;;;;;;;3.30;100.00;103167.94;5008394;28;20029;-63
2023/04/03 01:33:34;;;;;;;3.25;1.65;;;;;;;3.24;100.00;103170.34;5008039;28;20049;-63
2023/04/03 01:36:00;;;;;;;4.00;1.70;;;;;;;3.23;100.00;103168.56;5007542;28;20030;-63
2023/04/03 01:38:25;;;;;;;2.15;1.40;;;;;;;3.26;100.00;103169.59;5007468;28;20092;-64
2023/04/03 01:40:51;;;;;;;2.95;1.30;;;;;;;3.22;100.00;103167.69;5024041;28;20128;-64
2023/04/03 01:43:16;;;;;;;4.18;1.70;;;;;;;3.16;100.00;103163.16;5026885;28;20035;-63
2023/04/03 01:45:42;;;;;;;4.68;1.70;;;;;;;3.18;100.00;103170.13;5027975;28;20060;-63
2023/04/03 01:48:07;;;;;;;3.63;1.58;;;;;;;3.16;100.00;103167.47;5027361;28;20025;-63
2023/04/03 01:50:33;;;;;;;4.50;1.70;;;;;;;3.19;100.00;103162.34;5027811;28;20080;-62
2023/04/03 01:52:58;;;;;;;4.38;1.83;;;;;;;3.11;100.00;103164.72;5027251;28;20034;-65
2023/04/03 01:55:23;;;;;;;2.72;1.52;;;;;;;3.06;100.00;103170.56;5025503;28;20029;-66
2023/04/03 01:57:48;;;;;;;3.70;1.67;;;;;;;3.07;100.00;103168.03;5026483;28;20083;-62
2023/04/03 02:00:14;;;;;;;4.13;1.70;;;;;;;3.00;100.00;103166.03;5027211;28;20029;-62
2023/04/03 02:02:40;;;;;;;3.58;1.67;;;;;;;2.92;100.00;103168.38;5026888;28;20061;-62
2023/04/03 02:05:06;;;;;;;3.15;1.70;;;;;;;2.94;100.00;103165.81;5027400;28;20041;-63
2023/04/03 02:07:31;;;;;;;2.42;1.67;;;;;;;2.90;100.00;103167.44;5024440;28;20041;-62
2023/04/03 02:09:56;;;;;;;2.05;1.83;;;;;;;2.88;100.00;103172.59;5027578;28;20033;-63
2023/04/03 02:12:22;;;;;;;4.60;2.20;;;;;;;2.84;100.00;103172.44;5026760;28;20500;-62
2023/04/03 02:14:47;;;;;;;2.35;1.65;;;;;;;2.82;100.00;103185.41;5027404;28;20029;-64
2023/04/03 02:17:12;;;;;;;6.20;1.85;;;;;;;2.81;100.00;103185.34;5026497;28;20587;-63
2023/04/03 02:19:38;;;;;;;6.20;1.98;;;;;;;2.81;100.00;103174.91;5027517;28;20029;-64
2023/04/03 02:22:03;;;;;;;2.80;1.92;;;;;;;2.78;100.00;103184.41;5024584;28;20032;-62
2023/04/03 02:24:29;;;;;;;2.70;1.77;;;;;;;2.69;100.00;103181.47;5027455;28;20052;-64
2023/04/03 02:26:54;;;;;;;3.97;1.90;;;;;;;2.68;100.00;103184.88;5026551;28;20383;-63
2023/04/03 02:29:20;;;;;;;3.45;1.80;;;;;;;2.58;100.00;103190.56;5027402;28;20025;-63
2023/04/03 02:31:45;;;;;;;4.68;1.77;;;;;;;2.63;100.00;103183.84;5027204;28;20025;-63
2023/04/03 02:34:10;;;;;;;4.88;2.00;;;;;;;2.61;100.00;103188.09;5027021;28;20033;-63
2023/04/03 02:36:36;;;;;;;5.47;2.15;;;;;;;2.63;100.00;103196.84;5024740;28;20443;-63
2023/04/03 02:39:02;;;;;;;3.72;1.95;;;;;;;2.60;100.00;103194.13;5027402;28;20037;-62
2023/04/03 02:41:34;;;;;;;2.42;1.92;;;;;;;2.55;100.00;103193.94;5027573;28;20029;-66
2023/04/03 02:44:00;;;;;;;3.78;2.05;;;;;;;2.49;100.00;103189.41;5026312;28;20025;-65
2023/04/03 02:46:25;;;;;;;9.52;2.30;;;;;;;2.45;100.00;103195.34;5026914;28;20080;-63
2023/04/03 02:48:50;;;;;;;2.67;1.58;;;;;;;2.44;100.00;103197.88;5026994;28;20427;-63
2023/04/03 02:51:16;;;;;;;3.95;2.03;;;;;;;2.39;100.00;103197.69;5026870;28;20487;-63
2023/04/03 02:53:41;;;;;;;2.80;1.70;;;;;;;2.35;100.00;103193.19;5026013;28;20427;-61
2023/04/03 02:56:06;;;;;;;3.40;1.83;;;;;;;2.33;100.00;103192.25;5026788;28;20021;-65
2023/04/03 02:58:32;;;;;;;3.00;1.80;;;;;;;2.34;100.00;103191.41;5026962;28;20048;-64
2023/04/03 03:00:57;;;;;;;2.88;1.60;;;;;;;2.33;100.00;103192.25;5027372;28;20108;-65
2023/04/03 03:03:22;;;;;;;3.08;1.80;;;;;;;2.29;100.00;103190.34;5026598;28;20060;-62
2023/04/03 03:05:48;;;;;;;3.42;2.03;;;;;;;2.27;100.00;103193.81;5026535;28;20053;-63
2023/04/03 03:08:13;;;;;;;6.55;2.40;;;;;;;2.19;100.00;103197.81;5025779;28;20033;-64
2023/04/03 03:10:38;;;;;;;5.53;2.30;;;;;;;2.17;100.00;103202.06;5026692;28;20025;-63
2023/04/03 03:13:04;;;;;;;2.63;2.00;;;;;;;2.14;100.00;103201.94;5026201;28;20040;-62
2023/04/03 03:15:29;;;;;;;5.28;2.17;;;;;;;2.12;100.00;103203.59;5026819;28;20017;-63
2023/04/03 03:17:55;;;;;;;2.17;1.55;;;;;;;2.08;100.00;103202.56;5026854;28;20472;-63
2023/04/03 03:20:21;;;;;;;3.88;2.05;;;;;;;2.06;100.00;103200.75;5026093;28;20025;-63
2023/04/03 03:22:46;;;;;;;3.58;2.08;;;;;;;2.13;100.00;103205.34;5025288;28;20028;-65
2023/04/03 03:25:11;;;;;;;3.08;1.67;;;;;;;2.10;100.00;103211.31;5025753;28;20104;-64
2023/04/03 03:27:37;;;;;;;3.83;2.25;;;;;;;2.13;100.00;103215.75;5026411;28;20396;-64
2023/04/03 03:30:03;;;;;;;4.65;2.28;;;;;;;2.11;100.00;103210.50;5022980;28;20380;-63
2023/04/03 03:32:29;;;;;;;2.22;1.83;;;;;;;2.02;100.00;103212.75;5024924;28;20029;-66
2023/04/03 03:34:54;;;;;;;6.18;2.20;;;;;;;1.93;100.00;103221.06;5024791;28;20021;-63
2023/04/03 03:37:20;;;;;;;4.22;2.05;;;;;;;1.94;100.00;103217.63;5025401;28;20468;-62
2023/04/03 03:39:45;;;;;;;2.45;2.20;;;;;;;1.96;100.00;103215.97;5024749;28;20044;-65
2023/04/03 03:42:11;;;;;;;3.30;2.03;;;;;;;1.92;100.00;103216.66;5008314;28;20091;-63
2023/04/03 03:44:36;;;;;;;7.97;2.10;;;;;;;1.95;100.00;103219.41;5025924;28;20025;-65
2023/04/03 03:47:02;;;;;;;6.60;2.28;;;;;;;1.94;100.00;103216.72;5026263;28;20030;-63
2023/04/03 03:49:28;;;;;;;4.38;2.20;;;;;;;1.91;100.00;103212.31;5020761;28;20030;-62
2023/04/03 03:51:53;;;;;;;4.10;1.98;;;;;;;1.82;100.00;103218.03;5005951;28;20037;-62
2023/04/03 03:54:18;;;;;;;2.92;2.38;;;;;;;1.92;100.00;103229.69;5005491;28;20034;-64
2023/04/03 03:56:44;;;;;;;6.78;2.40;;;;;;;1.92;100.00;103229.69;4988135;28;20038;-63
2023/04/03 03:59:11;;;;;;;5.13;2.10;;;;;;;1.80;100.00;103222.25;5006360;28;20113;-62
2023/04/03 04:01:37;;;;;;;6.55;2.22;;;;;;;1.90;100.00;103228.75;5026089;28;20464;-64
2023/04/03 04:04:02;;;;;;;2.90;2.15;;;;;;;1.85;100.00;103223.34;5025439;28;20048;-63
2023/04/03 04:06:27;;;;;;;5.70;2.38;;;;;;;1.88;100.00;103223.47;5025354;28;20049;-62
2023/04/03 04:08:53;;;;;;;4.85;2.20;;;;;;;1.87;100.00;103218.22;5025804;28;20045;-62
2023/04/03 04:11:19;;;;;;;4.30;2.08;;;;;;;1.86;100.00;103206.91;5024347;28;20128;-62
2023/04/03 04:13:45;;;;;;;7.13;2.40;;;;;;;1.85;100.00;103215.56;5026096;28;20025;-64
2023/04/03 04:16:10;;;;;;;4.53;2.40;;;;;;;1.90;100.00;103226.16;5024786;28;20087;-63
2023/04/03 04:18:36;;;;;;;4.32;2.53;;;;;;;1.88;100.00;103226.06;5026444;28;20026;-62
2023/04/03 04:21:01;;;;;;;6.18;2.35;;;;;;;1.83;100.00;103229.28;5025328;28;20430;-63
2023/04/03 04:23:26;;;;;;;3.60;2.08;;;;;;;1.72;100.00;103229.72;5029444;28;20057;-62
2023/04/03 04:25:52;;;;;;;5.78;2.58;;;;;;;1.73;100.00;103226.31;5028890;28;20076;-66
2023/04/03 04:28:17;;;;;;;9.27;2.50;;;;;;;1.72;100.00;103234.06;5029029;28;20021;-62
2023/04/03 04:30:43;;;;;;;5.22;2.33;;;;;;;1.71;100.00;103230.56;5017242;28;20107;-62
2023/04/03 04:33:09;;;;;;;4.57;2.13;;;;;;;1.67;100.00;103230.38;4992066;28;20025;-63
2023/04/03 04:35:35;;;;;;;5.60;2.88;;;;;;;1.69;100.00;103232.22;5008531;28;20029;-62
2023/04/03 04:38:00;;;;;;;3.95;2.58;;;;;;;1.66;100.00;103226.91;5011757;28;20041;-65
2023/04/03 04:40:26;;;;;;;4.28;2.40;;;;;;;1.66;100.00;103224.31;5027964;28;20059;-64
2023/04/03 04:42:51;;;;;;;8.82;2.40;;;;;;;1.73;100.00;103228.94;5019019;28;20037;-63
2023/04/03 04:45:17;;;;;;;4.63;2.88;;;;;;;1.71;100.00;103232.25;5009241;28;20053;-65
2023/04/03 04:47:42;;;;;;;5.20;2.70;;;;;;;1.60;100.00;103235.31;5008698;28;20033;-62
2023/04/03 04:50:08;;;;;;;3.50;2.28;;;;;;;1.59;100.00;103235.22;5014105;28;20053;-62
2023/04/03 04:52:34;;;;;;;4.07;2.33;;;;;;;1.56;100.00;103241.19;5011610;28;20053;-65
2023/04/03 04:54:59;;;;;;;4.20;2.42;;;;;;;1.54;100.00;103242.88;5011023;28;20029;-66
2023/04/03 04:57:24;;;;;;;4.25;2.50;;;;;;;1.49;100.00;103242.66;5022709;28;20106;-64
2023/04/03 04:59:50;;;;;;;6.07;2.80;;;;;;;1.50;100.00;103251.31;5021111;28;20538;-62
2023/04/03 05:02:15;;;;;;;6.28;2.50;;;;;;;1.56;100.00;103253.31;5028389;28;20021;-62
2023/04/03 05:04:41;;;;;;;4.70;2.30;;;;;;;1.56;100.00;103253.31;5028024;28;20692;-63
2023/04/03 05:07:06;;;;;;;5.35;2.90;;;;;;;1.60;100.00;103244.81;5026395;28;20543;-62
2023/04/03 05:09:31;;;;;;;5.75;2.88;;;;;;;1.60;100.00;103252.63;5026681;28;20395;-63
2023/04/03 05:11:57;;;;;;;6.55;2.63;;;;;;;1.58;100.00;103255.16;5028042;28;20100;-63
2023/04/03 05:14:22;;;;;;;8.57;2.80;;;;;;;1.47;100.00;103257.28;5023878;28;20061;-63
2023/04/03 05:16:47;;;;;;;3.80;2.58;;;;;;;1.43;100.00;103255.38;5026578;28;20029;-63
2023/04/03 05:19:13;;;;;;;6.43;3.00;;;;;;;1.38;100.00;103254.28;5025761;28;20109;-63
2023/04/03 05:21:38;;;;;;;5.95;2.55;;;;;;;1.47;100.00;103266.78;5027226;28;20021;-62
2023/04/03 05:24:04;;;;;;;2.70;2.50;;;;;;;1.41;100.00;103262.22;5026990;28;20452;-64
2023/04/03 05:26:31;;;;;;;4.20;2.90;;;;;;;1.44;100.00;103267.53;5027996;28;20032;-65
2023/04/03 05:28:56;;;;;;;10.10;2.67;;;;;;;1.46;100.00;103263.31;5027958;28;20480;-66
2023/04/03 05:31:21;;;;;;;7.50;3.33;;;;;;;1.39;100.00;103256.94;5026829;28;20083;-62
2023/04/03 05:33:47;;;;;;;8.30;3.03;;;;;;;1.48;100.00;103266.84;5027520;28;20507;-64
2023/04/03 05:36:13;;;;;;;6.15;2.85;;;;;;;1.53;100.00;103263.59;4992677;28;20046;-63
2023/04/03 05:38:38;;;;;;;6.55;3.28;;;;;;;1.55;100.00;103270.63;5007455;28;20487;-62
2023/04/03 05:41:04;;;;;;;7.43;3.28;;;;;;;1.56;100.00;103276.72;5007654;28;20030;-64
2023/04/03 05:43:29;;;;;;;7.75;2.95;;;;;;;1.55;100.00;103273.22;5007575;28;20080;-64
2023/04/03 05:45:55;;;;;;;5.80;2.47;;;;;;;1.68;100.00;103263.34;5007886;28;20034;-64
2023/04/03 05:48:20;;;;;;;5.68;2.85;;;;;;;1.70;100.00;103264.28;4989994;28;20033;-61
2023/04/03 05:50:46;;;;;;;5.03;2.97;;;;;;;1.73;100.00;103274.81;5007199;28;20342;-63
2023/04/03 05:53:17;;;;;;;7.10;2.85;;;;;;;1.74;100.00;103277.50;5005870;28;20026;-65
2023/04/03 05:55:42;;;;;;;5.25;2.78;;;;;;;1.72;100.00;103276.53;5007438;28;20037;-63
2023/04/03 05:58:08;;;;;;;5.35;2.42;;;;;;;1.79;100.00;103269.00;5025120;28;20026;-64
2023/04/03 06:00:33;;;;;;;9.43;2.75;;;;;;;1.82;100.00;103277.81;5027071;28;20013;-65
2023/04/03 06:02:59;;;;;;;9.57;3.17;;;;;;;1.87;100.00;103283.22;5009147;28;20024;-63
2023/04/03 06:05:24;;;;;;;4.65;2.95;;;;;;;2.00;100.00;103277.72;5026841;28;20045;-64
2023/04/03 06:07:50;;;;;;;7.57;3.10;;;;;;;2.04;100.00;103288.25;5017989;28;20022;-62
2023/04/03 06:10:15;;;;;;;4.93;3.35;;;;;;;1.89;100.00;103285.06;4989837;28;20022;-65
2023/04/03 06:12:41;;;;;;;6.85;2.80;;;;;;;2.02;100.00;103286.44;5006850;28;20084;-63
2023/04/03 06:15:09;;;;;;;11.82;3.70;;;;;;;2.17;100.00;103287.91;5007240;28;20037;-63
2023/04/03 06:17:35;;;;;;;5.82;2.88;;;;;;;2.22;100.00;103290.69;4994030;28;20029;-62
2023/04/03 06:20:00;;;;;;;7.78;2.83;;;;;;;2.33;100.00;103289.41;5026053;28;20511;-62
2023/04/03 06:22:26;;;;;;;5.15;2.92;;;;;;;2.39;100.00;103300.09;5025526;28;20025;-63
2023/04/03 06:24:51;;;;;;;4.00;3.00;;;;;;;2.34;100.00;103301.59;5023810;28;20110;-63
2023/04/03 06:27:17;;;;;;;8.88;3.03;;;;;;;2.43;100.00;103298.47;5022161;28;20021;-64
2023/04/03 06:29:44;;;;;;;9.05;3.28;;;;;;;2.52;100.00;103297.94;5005975;28;20018;-65
2023/04/03 06:32:10;;;;;;;4.25;2.63;;;;;;;2.60;100.00;103296.56;5022552;28;20022;-63
2023/04/03 06:34:35;;;;;;;4.63;2.53;;;;;;;2.64;100.00;103298.44;5025233;28;20044;-62
2023/04/03 06:37:00;;;;;;;7.82;2.63;;;;;;;2.76;100.00;103303.22;5023986;28;20048;-64
2023/04/03 06:39:27;;;;;;;7.03;2.92;;;;;;;2.90;100.00;103311.59;5024131;28;20029;-65
2023/04/03 06:41:52;;;;;;;7.47;2.67;;;;;;;2.97;100.00;103301.38;5025215;28;20147;-63
2023/04/03 06:44:18;;;;;;;6.13;2.47;;;;;;;2.98;100.00;103303.19;5005029;28;20148;-61
2023/04/03 06:46:43;;;;;;;9.32;2.78;;;;;;;3.12;100.00;103307.19;5025230;28;20028;-63
2023/04/03 06:49:09;;;;;;;5.18;2.83;;;;;;;3.22;100.00;103310.13;5022796;28;20028;-64
2023/04/03 06:51:35;;;;;;;3.47;2.40;;;;;;;3.25;100.00;103308.50;5023497;28;20531;-63
2023/04/03 06:54:01;;;;;;;5.78;2.40;;;;;;;3.36;100.00;103305.41;5024251;28;20495;-64
2023/04/03 06:56:27;;;;;;;8.07;2.90;;;;;;;3.45;100.00;103310.06;5024034;28;20037;-62
2023/04/03 06:58:54;;;;;;;5.90;2.58;;;;;;;3.46;100.00;103307.50;5024390;28;20513;-64
2023/04/03 07:01:20;;;;;;;4.13;2.10;;;;;;;3.65;100.00;103318.59;5023973;28;20025;-64
2023/04/03 07:03:47;;;;;;;6.80;2.33;;;;;;;3.69;100.00;103315.25;5024080;28;20033;-62
2023/04/03 07:06:14;;;;;;;4.70;2.45;;;;;;;3.69;100.00;103324.78;5024276;28;20045;-63
2023/04/03 07:08:40;;;;;;;6.07;3.00;;;;;;;3.71;100.00;103326.66;5024335;28;20049;-64
2023/04/03 07:11:05;;;;;;;4.95;2.38;;;;;;;3.79;100.00;103322.56;5003981;28;20083;-62
2023/04/03 07:13:31;;;;;;;5.43;3.10;;;;;;;3.93;100.00;103327.38;5003038;28;20710;-63
2023/04/03 07:15:56;;;;;;;6.47;2.33;;;;;;;3.90;100.00;103329.88;5003102;28;20029;-63
2023/04/03 07:18:22;;;;;;;4.93;2.20;;;;;;;3.99;100.00;103329.31;5004316;28;20056;-61
2023/04/03 07:20:47;;;;;;;7.60;2.30;;;;;;;4.01;100.00;103333.72;5003971;28;20538;-61
2023/04/03 07:23:13;;;;;;;7.78;2.42;;;;;;;4.00;100.00;103337.19;5004617;28;20044;-63
2023/04/03 07:25:46;;;;;;;5.70;2.60;;;;;;;4.03;100.00;103336.38;5012312;28;20025;-64
2023/04/03 07:28:12;;;;;;;2.60;1.63;;;;;;;4.20;100.00;103342.19;5025660;28;20031;-63
2023/04/03 07:30:51;;;;;;;4.88;2.08;;;;;;;4.25;100.00;103337.13;5024970;28;20338;-61
2023/04/03 07:33:17;;;;;;;;;;;;;;;4.20;100.00;103334.38;5024661;28;20033;-62
2023/04/03 07:35:43;;;;;;;8.18;2.40;;;;;;;4.38;100.00;103344.53;5024979;28;19917;-63
2023/04/03 07:38:09;;;;;;;3.35;2.10;;;;;;;4.42;100.00;103348.09;5025048;28;20026;-64
2023/04/03 07:40:35;;;;;;;3.97;1.80;;;;;;;4.40;100.00;103355.03;5025315;28;20456;-61
2023/04/03 07:43:00;;;;;;;5.65;2.60;;;;;;;4.61;100.00;103354.81;5023835;28;20100;-63
2023/04/03 07:45:26;;;;;;;3.70;1.90;;;;;;;4.64;100.00;103352.28;5025451;28;20025;-63
2023/04/03 07:47:51;;;;;;;6.78;2.30;;;;;;;4.74;100.00;103358.72;5025166;28;20014;-63
2023/04/03 07:50:17;;;;;;;8.93;2.22;;;;;;;4.75;100.00;103352.63;5024216;28;20488;-64
2023/04/03 07:52:42;;;;;;;5.32;1.63;;;;;;;4.84;100.00;103354.63;5023897;28;20025;-64
2023/04/03 07:55:08;;;;;;;4.45;2.10;;;;;;;4.74;100.00;103363.94;5023991;28;20021;-65
2023/04/03 07:57:33;;;;;;;8.18;2.47;;;;;;;4.76;100.00;103364.84;5012341;28;20029;-62
2023/04/03 07:59:59;;;;;;;6.20;2.00;;;;;;;4.88;100.00;103368.69;5011847;28;20025;-64
2023/04/03 08:02:24;;;;;;;4.55;2.13;;;;;;;4.87;100.00;103370.41;5027722;28;20053;-64
2023/04/03 08:04:50;;;;;;;4.65;2.00;;;;;;;4.90;100.00;103382.69;5029061;28;20034;-62
2023/04/03 08:07:15;;;;;;;3.25;1.65;;;;;;;4.92;100.00;103370.56;5026637;28;20041;-62
2023/04/03 08:09:41;;;;;;;9.25;2.40;;;;;;;5.05;100.00;103366.59;5015417;28;20033;-63
2023/04/03 08:12:06;;;;;;;4.45;1.98;;;;;;;5.23;100.00;103363.63;5022012;28;20026;-62
2023/04/03 08:14:34;;;;;;;6.90;2.25;;;;;;;5.24;100.00;103370.63;5026452;28;20026;-62
2023/04/03 08:17:00;;;;;;;4.18;1.90;;;;;;;5.30;100.00;103369.94;5025533;28;20075;-66
2023/04/03 08:19:26;;;;;;;5.68;1.80;;;;;;;5.38;100.00;103378.00;5026816;28;20035;-62
2023/04/03 08:21:51;;;;;;;4.40;2.03;;;;;;;5.44;100.00;103370.31;5008011;28;20399;-63
2023/04/03 08:24:16;;;;;;;3.38;1.73;;;;;;;5.39;100.00;103375.41;5027089;28;20037;-63
2023/04/03 08:26:42;;;;;;;7.32;1.92;;;;;;;5.46;100.00;103381.72;5027619;28;20051;-64
2023/04/03 08:29:07;;;;;;;2.67;1.67;;;;;;;5.51;100.00;103382.72;5028757;28;20035;-62
2023/04/03 08:31:33;;;;;;;2.75;1.70;;;;;;;5.51;100.00;103380.13;5028556;28;20021;-64
2023/04/03 08:33:58;;;;;;;6.10;2.03;;;;;;;5.74;99.61;103377.25;5028162;28;20053;-64
2023/04/03 08:36:28;;;;;;;5.97;1.80;;;;;;;5.85;97.10;103385.41;5026470;28;20037;-63
2023/04/03 08:38:54;;;;;;;5.32;1.92;;;;;;;5.80;96.83;103382.66;5025443;28;20021;-63
2023/04/03 08:41:30;;;;;;;4.30;1.45;;;;;;;5.87;96.12;103382.84;5025617;28;20124;-63
2023/04/03 08:44:04;;;;;;;7.05;2.10;;;;;;;6.05;95.92;103387.72;5029165;28;20045;-64
2023/04/03 08:47:07;;;;;;;3.83;1.95;;;;;;;6.13;94.59;103388.78;5026028;28;20044;-62
2023/04/03 08:49:40;;;;;;;3.25;1.52;;;;;;;6.23;93.64;103389.91;4993500;28;20065;-64
2023/04/03 08:52:12;;;;;;;4.93;1.65;;;;;;;6.26;93.05;103395.22;4999066;28;20018;-64
2023/04/03 08:54:49;;;;;;;4.88;1.60;;;;;;;6.24;91.23;103381.22;5007784;28;20669;-64
2023/04/03 08:57:15;;;;;;;4.45;1.55;;;;;;;6.27;90.35;103383.03;5003747;28;20034;-61
2023/04/03 08:59:40;;;;;;;3.63;1.77;;;;;;;6.33;91.69;103377.94;5025984;28;20578;-63
2023/04/03 09:02:51;;;;;;;4.57;1.17;;;;;;;6.46;86.91;103379.13;5008095;28;20056;-66
2023/04/03 09:05:30;;;;;;;3.45;1.38;;;;;;;6.64;82.39;103377.78;5025962;28;20050;-65
2023/04/03 09:08:00;;;;;;;2.38;1.20;;;;;;;6.53;79.82;103381.03;5007868;28;20030;-61
2023/04/03 09:10:32;;;;;;;5.50;1.30;;;;;;;6.60;78.14;103382.09;5008957;28;20160;-62
2023/04/03 09:13:07;;;;;;;4.05;3.00;;;;;;;6.68;77.31;103369.16;4998448;28;20443;-66
2023/04/03 09:15:33;;;;;;;3.25;1.33;;;;;;;6.80;74.83;103371.16;4991819;28;20028;-61
2023/04/03 09:18:23;;;;;;;2.67;1.05;;;;;;;6.74;71.79;103374.53;5007696;28;20034;-66
2023/04/03 09:21:17;;;;;;;3.65;1.50;;;;;;;6.78;67.89;103375.50;4999560;28;20048;-61
2023/04/03 09:23:48;;;;;;;3.85;1.17;;;;;;;6.97;67.31;103376.81;5008902;28;20053;-63
2023/04/03 09:26:20;;;;;;;3.03;1.10;;;;;;;7.05;67.32;103374.34;5007004;28;20022;-62
2023/04/03 09:28:46;;;;;;;2.42;1.00;;;;;;;7.24;64.42;103377.34;5009428;28;20379;-62
2023/04/03 09:31:20;;;;;;;2.35;1.08;;;;;;;7.19;61.76;103378.16;5020890;28;20013;-65
2023/04/03 09:33:48;;;;;;;0.80;0.80;;;;;;;7.19;59.00;103367.66;5012727;28;20125;-62
2023/04/03 09:36:37;;;;;;;2.83;0.90;;;;;;;7.31;58.67;103363.50;4986587;28;20430;-63
2023/04/03 09:39:04;;;;;;;3.90;1.27;;;;;;;7.25;58.16;103353.78;5006644;28;20034;-63
2023/04/03 09:41:30;;;;;;;1.50;1.00;;;;;;;7.28;55.66;103360.81;5014757;28;20045;-63
2023/04/03 09:43:55;;;;;;;2.10;1.00;;;;;;;7.28;55.55;103350.34;5006910;28;20053;-62
2023/04/03 09:46:23;;;;;;;16.05;1.08;;;;;;;7.40;53.85;103349.69;5025052;28;20036;-63
2023/04/03 09:48:57;;;;;;;1.88;0.80;;;;;;;7.51;53.33;103344.66;5021442;28;20037;-63
2023/04/03 09:51:27;;;;;;;2.78;0.77;;;;;;;7.53;50.90;103346.47;5011929;28;20112;-63
2023/04/03 09:53:53;;;;;;;4.15;1.20;;;;;;;7.49;50.96;103334.16;5025835;28;20018;-62
2023/04/03 09:56:22;;;;;;;3.72;0.90;;;;;;;7.71;51.78;103350.31;5021372;28;20040;-61
2023/04/03 09:59:11;;;;;;;5.25;0.85;;;;;;;7.64;50.98;103343.16;5026667;28;20328;-62
2023/04/03 10:01:39;;;;;;;1.67;0.90;;;;;;;7.46;51.73;103344.56;5009887;28;20119;-63
2023/04/03 10:04:19;;;;;;;3.17;1.10;;;;;;;7.61;51.76;103343.13;5007699;28;20395;-62
2023/04/03 10:06:49;;;;;;;1.80;1.00;;;;;;;7.67;55.34;103337.97;5020641;28;20455;-62
2023/04/03 10:09:27;;;;;;;2.80;1.10;;;;;;;7.70;53.76;103340.66;5025654;28;20459;-62
2023/04/03 10:12:04;;;;;;;4.00;1.10;;;;;;;7.73;53.04;103338.09;5025275;28;20037;-65
2023/04/03 10:14:30;;;;;;;2.53;1.23;;;;;;;7.91;51.67;103334.03;5023984;28;20484;-63
2023/04/03 10:17:14;;;;;;;4.20;1.17;;;;;;;7.88;52.74;103334.84;5025294;28;20021;-63
2023/04/03 10:19:52;;;;;;;2.47;1.02;;;;;;;7.94;54.62;103324.47;5024875;28;20033;-62
2023/04/03 10:22:23;;;;;;;2.00;1.08;;;;;;;8.05;54.12;103323.75;5026560;28;20028;-62
2023/04/03 10:25:01;;;;;;;1.10;0.80;;;;;;;8.27;54.08;103322.38;5023701;28;20045;-63
2023/04/03 10:27:33;;;;;;;2.63;1.23;;;;;;;8.39;51.77;103313.78;5006286;28;20021;-59
2023/04/03 10:30:04;;;;;;;1.60;0.80;;;;;;;8.38;49.13;103313.78;5025567;28;20022;-64
2023/04/03 10:32:36;;;;;;;2.50;0.98;;;;;;;8.36;50.46;103308.50;5008820;28;20009;-65
2023/04/03 10:35:25;;;;;;;1.58;0.98;;;;;;;7.99;49.28;103314.03;5014674;28;20069;-64
2023/04/03 10:37:57;;;;;;;2.47;1.02;;;;;;;8.32;48.84;103314.56;4990953;28;20026;-60
2023/04/03 10:40:32;;;;;;;1.52;0.88;;;;;;;8.20;47.28;103316.16;5005613;28;20387;-60
2023/04/03 10:43:17;;;;;;;1.77;0.85;;;;;;;8.64;48.90;103311.56;4990386;28;20018;-62
2023/04/03 10:45:49;;;;;;;2.42;1.15;;;;;;;8.53;45.14;103305.25;4987761;28;20030;-62
2023/04/03 10:48:16;;;;;;;4.88;1.48;;;;;;;8.63;48.66;103306.28;5005519;28;20052;-61
2023/04/03 10:51:03;;;;;;;2.53;1.17;;;;;;;8.73;50.92;103313.41;4987069;28;20040;-62
2023/04/03 10:53:41;;;;;;;1.67;1.00;;;;;;;9.07;47.87;103313.91;5005214;28;20030;-64
2023/04/03 10:56:21;;;;;;;2.25;1.00;;;;;;;9.33;47.02;103297.50;5005042;28;20029;-60
2023/04/03 10:59:16;;;;;;;2.40;1.05;;;;;;;9.15;45.22;103307.84;5006507;28;20491;-62
2023/04/03 11:01:48;;;;;;;1.58;0.93;;;;;;;8.97;44.38;103302.34;5008623;28;20033;-60
2023/04/03 11:04:16;;;;;;;3.50;1.23;;;;;;;9.42;44.00;103301.97;5007470;28;20535;-61
2023/04/03 11:06:57;;;;;;;3.17;1.00;;;;;;;9.40;42.48;103298.47;5008165;28;20411;-63
2023/04/03 11:09:28;;;;;;;1.17;0.70;;;;;;;9.54;41.67;103300.38;5007909;28;20059;-61
2023/04/03 11:12:04;;;;;;;0.82;0.70;;;;;;;9.76;42.75;103293.56;5027782;28;20041;-61
2023/04/03 11:14:34;;;;;;;0.50;0.50;;;;;;;9.41;40.88;103292.34;5008217;28;20025;-62
2023/04/03 11:17:18;;;;;;;2.00;0.80;;;;;;;9.47;41.30;103291.50;5027143;28;20048;-64
2023/04/03 11:20:01;;;;;;;1.50;0.80;;;;;;;9.72;38.98;103299.63;5025203;28;20104;-63
2023/04/03 11:22:29;;;;;;;1.60;0.70;;;;;;;9.49;39.54;103297.69;5027470;28;20044;-64
2023/04/03 11:25:03;;;;;;;1.75;0.95;;;;;;;9.66;40.17;103291.72;5026410;28;20121;-61
2023/04/03 11:27:36;;;;;;;4.70;0.70;;;;;;;9.89;40.65;103288.38;4991009;28;20105;-64
2023/04/03 11:30:06;;;;;;;0.80;0.70;;;;;;;10.00;39.96;103289.38;4989689;28;20045;-62
2023/04/03 11:32:35;;;;;;;0.65;0.55;;;;;;;10.06;36.64;103284.13;5018522;28;20686;-61